Latest Weather Observations for Middle Point

IDD60901

Issued at 8:11 pm CST Sunday 28 August 2016 (issued every 10 minutes, with the page automatically refreshed every 10 minutes)

About weather observations | Map of Darwin area stations | Latest observations for Darwin area | Other Formats
Station Details ID: 014041 Name: MIDDLE POINT Lat: -12.61 Lon: 131.30 Height: 14.1 m
Data from the previous 72 hours. | See also: Recent months at Middle Point
Date/Time
CST
Temp
°C
App
Temp
°C
Dew
Point
°C
Rel
Hum
%
Delta-T
°C
Wind Press
QNH
hPa
Press
MSL
hPa
Rain since
9am
mm
Dir  Spd
km/h
Gust
km/h
Spd
kts
Gust
kts
28/08:00pm 23.3 22.1 11.7 48 6.5 N 9 11 5 6 1011.6 1011.5 0.0
28/07:30pm 24.3 22.9 10.9 43 7.5 N 9 11 5 6 1011.5 1011.4 0.0
28/07:00pm 26.6 24.3 10.3 36 9.1 N 13 17 7 9 1011.2 1011.1 0.0
28/06:30pm 28.2 24.9 9.5 31 10.4 N 17 22 9 12 1010.7 1010.7 0.0
28/06:00pm 30.3 26.4 8.7 26 12.0 NNE 19 22 10 12 1010.4 1010.4 0.0
28/05:30pm 31.5 28.1 9.1 25 12.6 NNE 17 24 9 13 1010.2 1010.2 0.0
28/05:00pm 32.2 28.4 9.7 25 12.8 N 20 28 11 15 1010.1 1010.1 0.0
28/04:30pm 32.7 28.8 9.5 24 13.2 N 20 28 11 15 1010.1 1010.1 0.0
28/04:00pm 33.2 29.3 9.3 23 13.6 NNE 20 28 11 15 1010.0 1010.0 0.0
28/03:30pm 35.0 31.7 6.3 17 15.7 ESE 13 20 7 11 1010.3 1010.3 0.0
28/03:00pm 34.3 32.9 7.4 19 14.9 SE 4 13 2 7 1010.6 1010.6 0.0
28/02:30pm 34.2 31.1 7.3 19 14.9 E 13 24 7 13 1011.0 1010.9 0.0
28/02:00pm 33.5 31.2 8.9 22 13.9 E 11 22 6 12 1011.7 1011.6 0.0
28/01:30pm 32.6 31.0 8.8 23 13.4 ENE 7 19 4 10 1012.2 1012.1 0.0
28/01:00pm 32.9 30.9 10.3 25 13.0 ENE 11 19 6 10 1012.9 1012.8 0.0
28/12:30pm 32.2 30.2 11.4 28 12.1 ENE 13 20 7 11 1013.4 1013.3 0.0
28/12:00pm 31.6 30.6 12.4 31 11.4 ENE 9 20 5 11 1014.2 1014.1 0.0
28/11:30am 31.0 29.9 14.2 36 10.2 ESE 13 22 7 12 1014.8 1014.7 0.0
28/11:00am 29.4 29.4 16.2 44 8.2 NE 11 19 6 10 1015.4 1015.3 0.0
28/10:30am 28.2 28.3 17.4 52 6.8 ENE 13 19 7 10 1015.9 1015.8 0.0
28/10:00am 28.6 28.0 17.5 51 7.0 ENE 17 26 9 14 1016.1 1016.0 0.0
28/09:30am 28.7 28.1 18.5 54 6.5 ENE 19 26 10 14 1016.1 1016.0 0.0
28/09:00am 26.7 28.1 19.6 65 4.6 ENE 11 17 6 9 1016.2 1016.1 0.0
28/08:30am 23.2 24.6 17.9 72 3.3 ESE 7 9 4 5 1016.3 1016.2 0.0
28/08:00am 21.1 23.4 16.7 76 2.7 CALM 0 2 0 1 1016.1 1016.0 0.0
28/07:30am 17.2 18.3 14.7 85 1.4 SSW 2 2 1 1 1015.8 1015.7 0.0
28/07:00am 16.5 17.4 14.0 85 1.4 SSW 2 2 1 1 1015.5 1015.4 0.0
28/06:30am 16.3 17.1 13.8 85 1.4 SSW 2 2 1 1 1015.2 1015.1 0.0
28/06:00am 16.1 16.9 13.6 85 1.4 NNE 2 4 1 2 1015.0 1014.9 0.0
28/05:30am 15.7 16.8 13.4 86 1.3 CALM 0 0 0 0 1014.6 1014.5 0.0
28/05:00am 15.5 16.3 12.4 82 1.7 CALM 0 0 0 0 1014.3 1014.2 0.0
28/04:30am 16.1 17.0 12.8 81 1.8 CALM 0 0 0 0 1014.4 1014.3 0.0
28/04:00am 15.9 16.1 13.0 83 1.6 N 4 4 2 2 1014.2 1014.1 0.0
28/03:30am 15.7 15.8 12.6 82 1.7 NNE 4 6 2 3 1014.2 1014.1 0.0
28/03:00am 16.3 16.5 13.0 81 1.8 NE 4 6 2 3 1014.3 1014.2 0.0
28/02:30am 16.5 17.3 12.5 77 2.2 CALM 0 0 0 0 1014.4 1014.3 0.0
28/02:00am 17.3 17.5 13.2 77 2.3 ENE 4 6 2 3 1014.8 1014.7 0.0
28/01:30am 17.2 18.0 12.7 75 2.5 CALM 0 0 0 0 1015.0 1014.9 0.0
28/01:00am 17.5 18.3 12.4 72 2.8 CALM 0 0 0 0 1015.2 1015.1 0.0
28/12:30am 18.5 19.6 13.4 72 2.9 CALM 0 0 0 0 1015.4 1015.3 0.0
28/12:00am 18.7 19.2 12.9 69 3.3 NW 2 4 1 2 1015.4 1015.3 0.0
 
Date/Time
CST
Temp
°C
App
Temp
°C
Dew
Point
°C
Rel
Hum
%
Delta-T
°C
Wind Press
QNH
hPa
Press
MSL
hPa
Rain since
9am
mm
Dir  Spd
km/h
Gust
km/h
Spd
kts
Gust
kts
27/11:30pm 19.6 20.8 13.8 69 3.3 CALM 0 0 0 0 1015.3 1015.2 0.0
27/11:00pm 18.8 18.7 13.2 70 3.2 SW 6 6 3 3 1015.0 1014.9 0.0
27/10:30pm 19.5 20.1 13.0 66 3.7 SW 2 7 1 4 1014.8 1014.7 0.0
27/10:00pm 19.8 20.7 12.8 64 4.0 CALM 0 0 0 0 1014.6 1014.5 0.0
27/09:30pm 22.0 22.8 13.6 59 4.9 N 2 4 1 2 1014.4 1014.3 0.0
27/09:00pm 22.4 22.4 13.5 57 5.1 N 6 7 3 4 1014.1 1014.0 0.0
27/08:30pm 23.6 23.2 12.9 51 6.2 N 7 9 4 5 1013.6 1013.5 0.0
27/08:00pm 24.0 23.2 11.7 46 7.0 N 7 7 4 4 1013.1 1013.0 0.0
27/07:30pm 24.9 24.0 10.8 41 7.9 N 6 7 3 4 1012.6 1012.5 0.0
27/07:00pm 27.4 25.5 10.6 35 9.5 N 11 13 6 7 1012.1 1012.0 0.0
27/06:30pm 29.4 26.6 10.0 30 10.9 N 15 22 8 12 1011.7 1011.6 0.0
27/06:00pm 32.6 30.8 9.4 24 13.2 ESE 9 13 5 7 1011.4 1011.3 0.0
27/05:30pm 34.1 31.6 4.7 16 15.6 SE 7 11 4 6 1011.2 1011.1 0.0
27/05:00pm 34.3 30.9 4.0 15 15.9 SSW 11 19 6 10 1011.1 1011.0 0.0
27/04:30pm 33.8 30.3 3.6 15 15.7 ESE 11 28 6 15 1011.2 1011.1 0.0
27/04:00pm 34.3 30.5 4.0 15 15.9 ESE 13 17 7 9 1011.4 1011.3 0.0
27/03:30pm 34.6 32.6 4.2 15 16.0 SE 4 9 2 5 1011.7 1011.6 0.0
27/03:00pm 33.7 31.2 3.5 15 15.7 ENE 6 13 3 7 1011.8 1011.7 0.0
27/02:30pm 33.4 29.9 3.3 15 15.5 SE 11 19 6 10 1012.4 1012.3 0.0
27/02:00pm 33.5 29.6 3.3 15 15.6 SE 13 22 7 12 1012.9 1012.8 0.0
27/01:30pm 33.3 29.7 3.2 15 15.5 E 11 20 6 11 1013.5 1013.4 0.0
27/01:00pm 32.4 28.0 2.5 15 15.1 ESE 15 32 8 17 1014.4 1014.3 0.0
27/12:30pm 31.7 26.4 1.9 15 14.9 E 19 30 10 16 1014.6 1014.5 0.0
27/12:00pm 31.4 27.3 4.2 18 14.1 ESE 15 26 8 14 1015.3 1015.2 0.0
27/11:30am 31.3 26.5 4.9 19 13.8 ESE 19 28 10 15 1015.9 1015.8 0.0
27/11:00am 31.0 26.7 6.8 22 13.1 ESE 19 26 10 14 1016.4 1016.3 0.0
27/10:30am 30.6 25.8 5.8 21 13.1 E 20 32 11 17 1016.5 1016.4 0.0
27/10:00am 29.3 23.6 4.7 21 12.7 E 24 35 13 19 1016.7 1016.6 0.0
27/09:30am 28.8 24.7 7.9 27 11.3 E 19 28 10 15 1016.6 1016.5 0.0
27/09:00am 27.6 24.7 12.4 39 8.8 E 19 26 10 14 1016.4 1016.3 0.0
27/08:30am 26.0 25.9 17.9 61 5.1 ENE 15 19 8 10 1016.4 1016.3 0.0
27/08:00am 24.1 26.6 20.2 79 2.5 ENE 7 11 4 6 1016.3 1016.2 0.0
27/07:30am 21.9 25.1 20.4 91 1.0 ENE 4 6 2 3 1015.9 1015.8 0.0
27/07:00am 20.0 21.8 18.3 90 1.1 E 6 6 3 3 1015.6 1015.5 0.0
27/06:30am 19.5 22.1 17.5 88 1.2 CALM 0 0 0 0 1015.3 1015.2 0.0
27/06:00am 19.8 22.4 17.4 86 1.5 CALM 0 0 0 0 1014.9 1014.8 0.0
27/05:30am 21.6 24.4 19.7 89 1.2 E 4 4 2 2 1014.4 1014.3 0.0
27/05:00am 21.4 24.0 18.4 83 1.9 NNE 2 4 1 2 1014.2 1014.1 0.0
27/04:30am 23.1 25.7 20.1 83 1.9 NE 6 9 3 5 1014.0 1013.9 0.0
27/04:00am 23.7 25.8 20.2 81 2.3 NE 9 13 5 7 1014.1 1014.0 0.0
27/03:30am 23.7 26.1 20.8 84 1.9 NE 9 11 5 6 1014.2 1014.1 0.0
27/03:00am 20.8 22.9 17.2 80 2.2 NNE 2 2 1 1 1014.2 1014.1 0.0
27/02:30am 22.4 24.4 19.2 82 2.0 NE 7 7 4 4 1014.2 1014.1 0.0
27/02:00am 21.3 23.1 17.5 79 2.3 NNE 4 6 2 3 1014.3 1014.2 0.0
27/01:30am 22.2 24.0 18.4 79 2.4 NE 6 6 3 3 1014.6 1014.5 0.0
27/01:00am 22.6 24.8 18.4 77 2.6 ENE 4 6 2 3 1014.6 1014.5 0.0
27/12:30am 23.1 26.0 18.2 74 3.1 CALM 0 0 0 0 1014.7 1014.6 0.0
27/12:00am 23.5 25.9 17.9 71 3.5 S 2 6 1 3 1014.7 1014.6 0.0
 
Date/Time
CST
Temp
°C
App
Temp
°C
Dew
Point
°C
Rel
Hum
%
Delta-T
°C
Wind Press
QNH
hPa
Press
MSL
hPa
Rain since
9am
mm
Dir  Spd
km/h
Gust
km/h
Spd
kts
Gust
kts
26/11:30pm 24.3 26.1 18.7 71 3.6 SSE 7 9 4 5 1014.7 1014.6 0.0
26/11:00pm 24.6 26.9 18.5 69 3.9 ESE 4 6 2 3 1014.4 1014.3 0.0
26/10:30pm 25.1 28.3 18.8 68 4.0 CALM 0 0 0 0 1013.9 1013.8 0.0
26/10:00pm 25.1 28.1 18.5 67 4.2 CALM 0 0 0 0 1013.8 1013.7 0.0
26/09:30pm 24.9 27.8 18.1 66 4.3 CALM 0 0 0 0 1013.5 1013.4 0.0
26/09:00pm 25.4 27.4 17.8 62 4.8 N 4 4 2 2 1013.0 1012.9 0.0
26/08:30pm 25.9 27.6 18.1 62 4.9 N 6 7 3 4 1012.6 1012.5 0.0
26/08:00pm 26.5 27.9 17.8 58 5.5 N 7 9 4 5 1012.3 1012.2 0.0
26/07:30pm 27.9 28.9 17.7 53 6.5 N 9 13 5 7 1012.0 1011.9 0.0
26/07:00pm 29.0 28.6 17.2 49 7.4 N 15 20 8 11 1011.6 1011.5 0.0
26/06:30pm 30.1 29.7 17.2 46 8.2 N 15 22 8 12 1011.3 1011.2 0.0
26/06:00pm 31.8 31.1 17.3 42 9.2 NNE 17 24 9 13 1010.9 1010.8 0.0
26/05:30pm 32.3 31.5 17.0 40 9.7 NNE 17 20 9 11 1010.5 1010.5 0.0
26/05:00pm 33.1 31.8 17.3 39 10.1 NNE 20 26 11 14 1010.1 1010.1 0.0
26/04:30pm 33.6 33.4 17.7 38 10.3 N 15 20 8 11 1009.9 1009.9 0.0
26/04:00pm 32.8 32.3 17.8 40 9.7 N 17 32 9 17 1009.9 1009.9 0.0
26/03:30pm 34.6 34.9 15.0 31 12.2 E 7 19 4 10 1010.1 1010.1 0.0
26/03:00pm 33.6 33.4 14.6 31 11.7 ESE 9 19 5 10 1010.3 1010.3 0.0
26/02:30pm 33.9 34.4 14.9 32 11.8 NE 6 11 3 6 1010.9 1010.8 0.0
26/02:00pm 34.3 34.7 15.2 31 11.9 ENE 7 22 4 12 1011.3 1011.2 0.0
26/01:30pm 34.5 33.6 15.9 33 11.7 ENE 15 24 8 13 1011.8 1011.7 0.0
26/01:00pm 34.2 32.8 15.6 32 11.7 ENE 17 28 9 15 1012.3 1012.2 0.0
26/12:30pm 33.0 31.9 16.4 37 10.5 E 17 28 9 15 1012.8 1012.7 0.0
26/12:00pm 32.5 31.6 16.8 39 9.9 E 17 28 9 15 1013.3 1013.2 0.0
26/11:30am 32.1 32.0 18.7 45 8.7 ESE 17 28 9 15 1013.7 1013.6 0.0
26/11:00am 30.7 30.1 18.8 49 7.7 ESE 20 32 11 17 1014.2 1014.1 0.0
26/10:30am 30.8 30.3 19.2 50 7.6 ESE 20 30 11 16 1014.5 1014.4 0.0
26/10:00am 30.6 29.7 19.0 50 7.5 E 22 28 12 15 1014.6 1014.5 0.0
26/09:30am 29.1 28.5 19.7 57 6.1 ENE 22 33 12 18 1014.7 1014.6 0.0
26/09:00am 28.4 29.7 21.7 67 4.5 E 17 35 9 19 1014.6 1014.5 0.0
26/08:30am 26.7 28.4 21.7 74 3.3 ESE 15 22 8 12 1014.5 1014.4 0.0
26/08:00am 25.6 27.9 21.3 77 2.8 ESE 11 15 6 8 1014.3 1014.2 0.0
26/07:30am 24.7 26.5 20.4 77 2.8 SE 11 13 6 7 1013.9 1013.8 0.0
26/07:00am 23.9 25.3 19.6 77 2.8 ESE 11 15 6 8 1013.3 1013.2 0.0
26/06:30am 24.1 24.7 17.6 67 4.1 ESE 11 17 6 9 1012.8 1012.7 0.0
26/06:00am 24.6 23.7 12.5 46 7.0 SE 9 17 5 9 1012.5 1012.4 0.0
26/05:30am 24.2 22.9 12.5 48 6.7 SSE 11 15 6 8 1012.2 1012.1 0.0
26/05:00am 24.6 23.3 12.5 46 7.0 S 11 15 6 8 1011.8 1011.7 0.0
26/04:30am 24.9 23.8 13.1 48 6.9 SSW 11 15 6 8 1011.6 1011.5 0.0
26/04:00am 23.9 23.1 14.0 54 5.8 SSW 11 15 6 8 1011.5 1011.4 0.0
26/03:30am 22.2 22.4 14.6 62 4.5 SW 7 9 4 5 1011.3 1011.2 0.0
26/03:00am 21.9 22.6 15.5 67 3.8 SW 6 7 3 4 1011.2 1011.1 0.0
26/02:30am 21.7 22.3 15.3 67 3.8 SW 6 7 3 4 1011.3 1011.2 0.0
26/02:00am 22.3 22.7 15.4 65 4.1 SSW 7 9 4 5 1011.4 1011.3 0.0
26/01:30am 22.4 23.5 15.5 65 4.1 SW 4 7 2 4 1011.5 1011.4 0.0
26/01:00am 21.6 22.6 15.4 68 3.7 WSW 4 4 2 2 1011.6 1011.5 0.0
26/12:30am 20.6 21.1 14.9 70 3.4 WSW 6 6 3 3 1011.7 1011.6 0.0
26/12:00am 20.9 21.6 14.5 67 3.7 SW 4 4 2 2 1011.7 1011.6 0.0
 
Date/Time
CST
Temp
°C
App
Temp
°C
Dew
Point
°C
Rel
Hum
%
Delta-T
°C
Wind Press
QNH
hPa
Press
MSL
hPa
Rain since
9am
mm
Dir  Spd
km/h
Gust
km/h
Spd
kts
Gust
kts
25/11:30pm 22.5 23.1 15.8 66 4.0 S 7 11 4 6 1011.9 1011.8 0.0
25/11:00pm 22.7 23.4 15.5 64 4.3 WSW 6 9 3 5 1011.6 1011.5 0.0
25/10:30pm 22.9 22.8 16.0 65 4.2 WSW 11 13 6 7 1011.4 1011.3 0.0
25/10:00pm 23.3 23.1 16.8 67 4.0 W 13 15 7 8 1011.3 1011.2 0.0
25/09:30pm 24.1 24.3 14.8 56 5.5 WNW 7 9 4 5 1011.1 1011.0 0.0
25/09:00pm 24.7 25.0 15.1 55 5.8 N 7 7 4 4 1010.6 1010.6 0.0
25/08:30pm 25.9 26.1 14.7 50 6.7 NW 7 9 4 5 1010.3 1010.3 0.0

Latest Capital City Observations: Canberra | Sydney | Melbourne | Brisbane | Adelaide | Perth | Hobart | Darwin

Other Formats:

Comma delimited format used in spreadsheet applications
http://www.bom.gov.au/fwo/IDD60901/IDD60901.95121.axf

JavaScript Object Notation format (JSON) in row-major order
http://www.bom.gov.au/fwo/IDD60901/IDD60901.95121.json